Terminal Aerodrome Forecast
Issued by NWS Cleveland, OH

Home | Current Version | Previous Version | Graphics & Text | Print | Product List | Glossary Off
Versions: 1 2 3 4 5 6 7 8 9 10 11 12 13 14 15 16 17 18 19 20 21 22 23 24 25

000
FTUS41 KCLE 200155 AAA
TAFYNG
TAF AMD
KYNG 200155Z 2002/2024 28012G20KT P6SM VCSH BKN015
     FM200600 27012KT P6SM OVC025
     FM200900 26012KT P6SM BKN035
     FM201300 23011KT P6SM SCT250=

USA.gov is the U.S. government's official web portal to all federal, state and local government web resources and services.